Detroit Lakes, MN

10:04 AM CDT on May 28, 2017 (GMT -0500)
Detroit Lakes

Weather History for KDTL - May, 2013

Change the Weather History Date:

Thursday, May 2, 2013

  Actual Average Record
Temperature  
Mean Temperature 30 °F -  
Max Temperature 35 °F 63 °F 92 °F (1959)
Min Temperature 26 °F 35 °F 18 °F (1967)
Degree Days  
Heating Degree Days 34    
Moisture  
Dew Point 25 °F    
Average Humidity 80    
Maximum Humidity 100    
Minimum Humidity 69    
Precipitation  
Precipitation 0.00 in - - ()
Sea Level Pressure  
Sea Level Pressure 30.59 in    
Wind  
Wind Speed 6 mph (North)    
Max Wind Speed 20 mph    
Max Gust Speed 25 mph    
Visibility 10 miles    
Events      
Averages and records for this station are not official NWS values.
T = Trace of Precipitation, MM = Missing Value Source: NWS Daily Summary

Daily Weather History Graph

Daily Weather History Graph

Search for Another Location

Airport or City:

Trip Planner

Search our weather history database for the weather conditions in past years. The results will help you decide how hot, cold, wet, or windy it might be!

Date:

Astronomy

May. 02, 2013 Rise Set
Actual Time 6:06 AM CDT 8:35 PM CDT
Civil Twilight 5:32 AM CDT 9:09 PM CDT
Nautical Twilight 4:49 AM CDT 9:52 PM CDT
Astronomical Twilight 4:01 AM CDT 10:41 PM CDT
Moon 2:22 AM CDT (5/2) 12:59 PM CDT (5/2)
Length of Visible Light 15h 36m
Length of Day
14h 28m
Waning Gibbous, 47% of the Moon is Illuminated
May 2
Waning Gibbous
May 9
New
May 17
First Quarter
May 24
Full
May 31
Last Quarter

Hourly Weather History & Observations

Time (CDT) Temp. Windchill Dew Point Humidity Pressure Visibility Wind Dir Wind Speed Gust Speed Precip Events Conditions
12:15 AM 30.2 °F 26.7 °F 26.6 °F 86% 30.57 in 10.0 mi North 3.5 mph - N/A   Clear
12:35 AM 30.2 °F - 26.6 °F 86% 30.57 in 10.0 mi Calm Calm - N/A   Clear
12:56 AM 30.2 °F - 26.6 °F 86% 30.57 in 10.0 mi Calm Calm - N/A   Clear
1:35 AM 30.2 °F - 24.8 °F 80% 30.57 in 10.0 mi Calm Calm - N/A   Clear
1:56 AM 28.4 °F - 26.6 °F 93% 30.57 in 10.0 mi Calm Calm - N/A   Clear
2:15 AM 28.4 °F - 26.6 °F 93% 30.58 in 10.0 mi Calm Calm - N/A   Clear
2:35 AM 28.4 °F - 24.8 °F 86% 30.58 in 10.0 mi Calm Calm - N/A   Clear
2:56 AM 28.4 °F - 26.6 °F 93% 30.59 in 10.0 mi Calm Calm - N/A   Clear
3:16 AM 28.4 °F - 26.6 °F 93% 30.59 in 10.0 mi Calm Calm - N/A   Clear
3:35 AM 28.4 °F 24.6 °F 26.6 °F 93% 30.59 in 10.0 mi NW 3.5 mph - N/A   Clear
3:56 AM 28.4 °F 24.6 °F 26.6 °F 93% 30.59 in 10.0 mi NNW 3.5 mph - N/A   Clear
4:16 AM 26.6 °F 22.6 °F 26.6 °F 100% 30.60 in 10.0 mi NNW 3.5 mph - N/A   Clear
4:35 AM 28.4 °F 23.3 °F 26.6 °F 93% 30.59 in 10.0 mi NNW 4.6 mph - N/A   Clear
4:56 AM 26.6 °F 21.2 °F 26.6 °F 100% 30.60 in 10.0 mi NNW 4.6 mph - N/A   Clear
5:15 AM 26.6 °F 20.0 °F 26.6 °F 100% 30.60 in 10.0 mi NNW 5.8 mph - N/A   Clear
5:35 AM 26.6 °F 19.1 °F 26.6 °F 100% 30.61 in 10.0 mi NNW 6.9 mph - N/A   Clear
5:56 AM 26.6 °F 19.1 °F 26.6 °F 100% 30.62 in 10.0 mi NNW 6.9 mph - N/A   Clear
6:15 AM 26.6 °F 22.6 °F 26.6 °F 100% 30.61 in 10.0 mi North 3.5 mph - N/A   Clear
6:36 AM 26.6 °F 21.2 °F 24.8 °F 93% 30.63 in 10.0 mi North 4.6 mph - N/A   Clear
6:55 AM 28.4 °F 23.3 °F 23.0 °F 80% 30.63 in 10.0 mi North 4.6 mph - N/A   Clear
7:15 AM 28.4 °F 23.3 °F 23.0 °F 80% 30.63 in 10.0 mi NNE 4.6 mph - N/A   Clear
7:36 AM 28.4 °F 23.3 °F 24.8 °F 86% 30.63 in 10.0 mi North 4.6 mph - N/A   Clear
7:55 AM 30.2 °F 24.3 °F 24.8 °F 80% 30.64 in 10.0 mi North 5.8 mph - N/A   Clear
8:16 AM 30.2 °F 21.9 °F 24.8 °F 80% 30.65 in 10.0 mi North 9.2 mph - N/A   Clear
8:36 AM 30.2 °F 21.9 °F 24.8 °F 80% 30.65 in 10.0 mi North 9.2 mph 18.4 mph N/A   Mostly Cloudy
8:55 AM 30.2 °F 21.3 °F 24.8 °F 80% 30.66 in 10.0 mi North 10.4 mph 17.3 mph N/A   Overcast
9:16 AM 30.2 °F 21.9 °F 24.8 °F 80% 30.66 in 10.0 mi North 9.2 mph 20.7 mph N/A   Overcast
9:36 AM 30.2 °F 20.8 °F 24.8 °F 80% 30.66 in 10.0 mi North 11.5 mph 19.6 mph N/A   Overcast
9:55 AM 30.2 °F 19.3 °F 23.0 °F 75% 30.66 in 10.0 mi North 15.0 mph 20.7 mph N/A   Overcast
10:16 AM 30.2 °F 18.9 °F 24.8 °F 80% 30.66 in 10.0 mi NNW 16.1 mph 19.6 mph N/A   Overcast
10:35 AM 30.2 °F 18.9 °F 23.0 °F 75% 30.66 in 10.0 mi NNW 16.1 mph 21.9 mph N/A   Overcast
10:55 AM 32.0 °F 21.2 °F 23.0 °F 69% 30.66 in 10.0 mi NNW 16.1 mph 20.7 mph N/A   Overcast
11:16 AM 32.0 °F 21.6 °F 24.8 °F 75% 30.66 in 10.0 mi NNW 15.0 mph 19.6 mph N/A   Overcast
11:35 AM 32.0 °F 23.0 °F 24.8 °F 75% 30.65 in 10.0 mi North 11.5 mph 20.7 mph N/A   Overcast
11:55 AM 32.0 °F 22.1 °F 23.0 °F 69% 30.65 in 10.0 mi NNW 13.8 mph 21.9 mph N/A   Mostly Cloudy
12:16 PM 32.0 °F 21.6 °F 23.0 °F 69% 30.64 in 10.0 mi NNW 15.0 mph 20.7 mph N/A   Mostly Cloudy
12:35 PM 32.0 °F 21.6 °F 23.0 °F 69% 30.64 in 10.0 mi North 15.0 mph 21.9 mph N/A   Overcast
12:55 PM 32.0 °F 20.8 °F 23.0 °F 69% 30.63 in 10.0 mi NNW 17.3 mph 21.9 mph N/A   Overcast
1:16 PM 33.8 °F 23.9 °F 24.8 °F 70% 30.62 in 10.0 mi North 15.0 mph 20.7 mph N/A   Overcast
1:35 PM 33.8 °F 22.5 °F 24.8 °F 70% 30.62 in 10.0 mi NNW 19.6 mph 25.3 mph N/A   Mostly Cloudy
1:56 PM 33.8 °F 22.8 °F 24.8 °F 70% 30.61 in 10.0 mi North 18.4 mph 25.3 mph N/A   Overcast
2:15 PM 33.8 °F 23.9 °F 24.8 °F 70% 30.60 in 10.0 mi North 15.0 mph 20.7 mph N/A   Overcast
2:35 PM 33.8 °F 25.8 °F 26.6 °F 75% 30.59 in 10.0 mi North 10.4 mph 18.4 mph N/A   Mostly Cloudy
2:56 PM 35.6 °F 26.2 °F 26.6 °F 70% 30.60 in 10.0 mi NNW 15.0 mph 21.9 mph N/A   Mostly Cloudy
3:15 PM 35.6 °F 26.6 °F 26.6 °F 70% 30.59 in 10.0 mi North 13.8 mph 24.2 mph N/A   Overcast
3:35 PM 33.8 °F 23.5 °F 26.6 °F 75% 30.58 in 10.0 mi North 16.1 mph 19.6 mph N/A   Mostly Cloudy
3:56 PM 33.8 °F 23.9 °F 26.6 °F 75% 30.58 in 10.0 mi North 15.0 mph 18.4 mph N/A   Mostly Cloudy
4:15 PM 33.8 °F 24.8 °F 26.6 °F 75% 30.57 in 10.0 mi North 12.7 mph 19.6 mph N/A   Mostly Cloudy
4:35 PM 33.8 °F 24.3 °F 26.6 °F 75% 30.57 in 10.0 mi North 13.8 mph 20.7 mph N/A   Mostly Cloudy
4:56 PM 33.8 °F 25.8 °F 26.6 °F 75% 30.56 in 10.0 mi NNE 10.4 mph 19.6 mph N/A   Mostly Cloudy
5:15 PM 33.8 °F 27.0 °F 26.6 °F 75% 30.56 in 10.0 mi North 8.1 mph 17.3 mph N/A   Mostly Cloudy
5:35 PM 33.8 °F 27.0 °F 26.6 °F 75% 30.56 in 10.0 mi North 8.1 mph 19.6 mph N/A   Mostly Cloudy
5:56 PM 33.8 °F 25.8 °F 26.6 °F 75% 30.56 in 10.0 mi North 10.4 mph 16.1 mph N/A   Mostly Cloudy
6:15 PM 33.8 °F 28.6 °F 26.6 °F 75% 30.56 in 10.0 mi North 5.8 mph 17.3 mph N/A   Mostly Cloudy
6:35 PM 32.0 °F 24.8 °F 24.8 °F 75% 30.55 in 10.0 mi NNE 8.1 mph 18.4 mph N/A   Mostly Cloudy
6:55 PM 32.0 °F 26.4 °F 24.8 °F 75% 30.55 in 10.0 mi North 5.8 mph - N/A   Mostly Cloudy
7:15 PM 32.0 °F 23.0 °F 24.8 °F 75% 30.55 in 10.0 mi North 11.5 mph - N/A   Overcast
7:36 PM 32.0 °F 24.2 °F 24.8 °F 75% 30.55 in 10.0 mi NNE 9.2 mph - N/A   Overcast
7:55 PM 32.0 °F 27.5 °F 24.8 °F 75% 30.55 in 10.0 mi North 4.6 mph - N/A   Overcast
8:15 PM 32.0 °F 26.4 °F 24.8 °F 75% 30.55 in 10.0 mi North 5.8 mph - N/A   Overcast
8:36 PM 32.0 °F 26.4 °F 26.6 °F 80% 30.54 in 10.0 mi NNE 5.8 mph - N/A   Overcast
8:55 PM 32.0 °F 26.4 °F 24.8 °F 75% 30.55 in 10.0 mi NNE 5.8 mph - N/A   Overcast
9:15 PM 32.0 °F 25.6 °F 23.0 °F 69% 30.54 in 10.0 mi North 6.9 mph - N/A   Overcast
9:36 PM 32.0 °F 27.5 °F 24.8 °F 75% 30.54 in 10.0 mi North 4.6 mph - N/A   Overcast
9:55 PM 32.0 °F 28.7 °F 26.6 °F 80% 30.54 in 10.0 mi North 3.5 mph - N/A   Overcast
10:15 PM 32.0 °F 28.7 °F 26.6 °F 80% 30.53 in 10.0 mi North 3.5 mph - N/A   Overcast
10:36 PM 32.0 °F 25.6 °F 26.6 °F 80% 30.52 in 10.0 mi North 6.9 mph - N/A   Overcast
10:55 PM 32.0 °F 28.7 °F 26.6 °F 80% 30.52 in 10.0 mi North 3.5 mph - N/A   Overcast
11:15 PM 32.0 °F 27.5 °F 26.6 °F 80% 30.51 in 10.0 mi NNE 4.6 mph - N/A   Overcast
11:36 PM 32.0 °F 23.6 °F 26.6 °F 80% 30.51 in 10.0 mi NNE 10.4 mph - N/A   Overcast
11:55 PM 32.0 °F 24.8 °F 23.0 °F 69% 30.51 in 10.0 mi NE 8.1 mph - N/A   Mostly Cloudy